sensor_id;sensor_type;location;lat;lon;timestamp;temperature;humidity
44863;DHT22;30597;49.628;10.850;2023-12-07T00:02:13;16.20;52.50
44863;DHT22;30597;49.628;10.850;2023-12-07T00:04:38;16.30;52.30
44863;DHT22;30597;49.628;10.850;2023-12-07T00:07:04;16.20;52.60
44863;DHT22;30597;49.628;10.850;2023-12-07T00:09:29;16.30;52.70
44863;DHT22;30597;49.628;10.850;2023-12-07T00:11:55;16.10;52.60
44863;DHT22;30597;49.628;10.850;2023-12-07T00:14:21;16.10;52.60
44863;DHT22;30597;49.628;10.850;2023-12-07T00:16:46;16.10;52.60
44863;DHT22;30597;49.628;10.850;2023-12-07T00:19:13;16.20;52.80
44863;DHT22;30597;49.628;10.850;2023-12-07T00:21:39;16.10;52.60
44863;DHT22;30597;49.628;10.850;2023-12-07T00:24:06;16.10;52.70
44863;DHT22;30597;49.628;10.850;2023-12-07T00:26:32;16.10;52.50
44863;DHT22;30597;49.628;10.850;2023-12-07T00:28:57;16.00;52.70
44863;DHT22;30597;49.628;10.850;2023-12-07T00:31:23;16.00;52.70
44863;DHT22;30597;49.628;10.850;2023-12-07T00:33:48;16.00;52.70
44863;DHT22;30597;49.628;10.850;2023-12-07T00:36:14;16.10;52.60
44863;DHT22;30597;49.628;10.850;2023-12-07T00:38:40;16.00;52.50
44863;DHT22;30597;49.628;10.850;2023-12-07T00:41:06;16.00;52.70
44863;DHT22;30597;49.628;10.850;2023-12-07T00:43:32;16.10;52.80
44863;DHT22;30597;49.628;10.850;2023-12-07T00:45:57;16.10;52.80
44863;DHT22;30597;49.628;10.850;2023-12-07T00:48:23;16.00;52.60
44863;DHT22;30597;49.628;10.850;2023-12-07T00:50:48;16.20;52.90
44863;DHT22;30597;49.628;10.850;2023-12-07T00:53:14;16.10;52.60
44863;DHT22;30597;49.628;10.850;2023-12-07T00:55:39;16.00;52.60
44863;DHT22;30597;49.628;10.850;2023-12-07T00:58:05;16.00;52.60
44863;DHT22;30597;49.628;10.850;2023-12-07T01:00:31;16.00;52.70
44863;DHT22;30597;49.628;10.850;2023-12-07T01:02:56;16.00;52.70
44863;DHT22;30597;49.628;10.850;2023-12-07T01:05:23;16.10;52.80
44863;DHT22;30597;49.628;10.850;2023-12-07T01:07:49;16.00;52.60
44863;DHT22;30597;49.628;10.850;2023-12-07T01:10:14;16.00;52.60
44863;DHT22;30597;49.628;10.850;2023-12-07T01:12:40;16.00;52.60
44863;DHT22;30597;49.628;10.850;2023-12-07T01:15:06;16.00;52.70
44863;DHT22;30597;49.628;10.850;2023-12-07T01:17:31;16.00;52.70
44863;DHT22;30597;49.628;10.850;2023-12-07T01:19:57;15.90;53.40
44863;DHT22;30597;49.628;10.850;2023-12-07T01:22:24;15.90;52.80
44863;DHT22;30597;49.628;10.850;2023-12-07T01:24:49;15.80;52.80
44863;DHT22;30597;49.628;10.850;2023-12-07T01:27:15;15.90;52.90
44863;DHT22;30597;49.628;10.850;2023-12-07T01:29:41;15.90;52.80
44863;DHT22;30597;49.628;10.850;2023-12-07T01:32:07;15.80;52.80
44863;DHT22;30597;49.628;10.850;2023-12-07T01:34:32;15.80;52.80
44863;DHT22;30597;49.628;10.850;2023-12-07T01:36:58;15.70;52.90
44863;DHT22;30597;49.628;10.850;2023-12-07T01:39:26;15.70;52.80
44863;DHT22;30597;49.628;10.850;2023-12-07T01:41:52;15.70;53.00
44863;DHT22;30597;49.628;10.850;2023-12-07T01:44:18;15.70;53.10
44863;DHT22;30597;49.628;10.850;2023-12-07T01:46:45;15.70;53.20
44863;DHT22;30597;49.628;10.850;2023-12-07T01:49:11;15.60;53.00
44863;DHT22;30597;49.628;10.850;2023-12-07T01:51:36;15.70;53.00
44863;DHT22;30597;49.628;10.850;2023-12-07T01:54:04;15.50;53.10
44863;DHT22;30597;49.628;10.850;2023-12-07T01:56:31;15.50;53.40
44863;DHT22;30597;49.628;10.850;2023-12-07T01:58:57;15.50;53.20
44863;DHT22;30597;49.628;10.850;2023-12-07T02:01:22;15.60;53.30
44863;DHT22;30597;49.628;10.850;2023-12-07T02:03:50;15.60;53.20
44863;DHT22;30597;49.628;10.850;2023-12-07T02:06:15;15.60;53.20
44863;DHT22;30597;49.628;10.850;2023-12-07T02:08:41;15.60;53.10
44863;DHT22;30597;49.628;10.850;2023-12-07T02:11:08;15.60;52.90
44863;DHT22;30597;49.628;10.850;2023-12-07T02:13:38;15.60;53.20
44863;DHT22;30597;49.628;10.850;2023-12-07T02:16:11;15.60;53.10
44863;DHT22;30597;49.628;10.850;2023-12-07T02:18:44;15.60;53.10
44863;DHT22;30597;49.628;10.850;2023-12-07T02:21:23;15.60;53.20
44863;DHT22;30597;49.628;10.850;2023-12-07T02:23:51;15.60;53.30
44863;DHT22;30597;49.628;10.850;2023-12-07T02:26:20;15.60;53.20
44863;DHT22;30597;49.628;10.850;2023-12-07T02:28:47;15.50;53.10
44863;DHT22;30597;49.628;10.850;2023-12-07T02:31:13;15.60;53.20
44863;DHT22;30597;49.628;10.850;2023-12-07T02:33:39;15.60;53.20
44863;DHT22;30597;49.628;10.850;2023-12-07T02:36:05;15.60;53.20
44863;DHT22;30597;49.628;10.850;2023-12-07T02:38:30;15.60;53.80
44863;DHT22;30597;49.628;10.850;2023-12-07T02:40:58;15.50;53.00
44863;DHT22;30597;49.628;10.850;2023-12-07T02:43:24;15.50;53.10
44863;DHT22;30597;49.628;10.850;2023-12-07T02:45:50;15.50;53.20
44863;DHT22;30597;49.628;10.850;2023-12-07T02:48:16;15.60;53.00
44863;DHT22;30597;49.628;10.850;2023-12-07T02:50:43;15.40;52.80
44863;DHT22;30597;49.628;10.850;2023-12-07T02:53:08;15.50;53.10
44863;DHT22;30597;49.628;10.850;2023-12-07T02:55:34;15.40;52.90
44863;DHT22;30597;49.628;10.850;2023-12-07T02:58:00;15.40;53.00
44863;DHT22;30597;49.628;10.850;2023-12-07T03:00:25;15.50;53.10
44863;DHT22;30597;49.628;10.850;2023-12-07T03:02:51;15.40;52.90
44863;DHT22;30597;49.628;10.850;2023-12-07T03:05:17;15.40;52.90
44863;DHT22;30597;49.628;10.850;2023-12-07T03:07:45;15.40;53.00
44863;DHT22;30597;49.628;10.850;2023-12-07T03:10:11;15.40;53.00
44863;DHT22;30597;49.628;10.850;2023-12-07T03:12:36;15.30;53.00
44863;DHT22;30597;49.628;10.850;2023-12-07T03:15:02;15.30;53.10
44863;DHT22;30597;49.628;10.850;2023-12-07T03:17:28;15.30;52.90
44863;DHT22;30597;49.628;10.850;2023-12-07T03:19:53;15.30;53.10
44863;DHT22;30597;49.628;10.850;2023-12-07T03:22:19;15.40;53.00
44863;DHT22;30597;49.628;10.850;2023-12-07T03:24:47;15.20;53.00
44863;DHT22;30597;49.628;10.850;2023-12-07T03:27:14;15.40;53.30
44863;DHT22;30597;49.628;10.850;2023-12-07T03:29:40;15.50;53.20
44863;DHT22;30597;49.628;10.850;2023-12-07T03:32:06;15.60;53.00
44863;DHT22;30597;49.628;10.850;2023-12-07T03:34:32;15.70;52.80
44863;DHT22;30597;49.628;10.850;2023-12-07T03:36:58;15.80;52.70
44863;DHT22;30597;49.628;10.850;2023-12-07T03:39:23;15.90;52.70
44863;DHT22;30597;49.628;10.850;2023-12-07T03:41:50;16.00;52.60
44863;DHT22;30597;49.628;10.850;2023-12-07T03:44:16;16.00;52.30
44863;DHT22;30597;49.628;10.850;2023-12-07T03:46:44;16.10;52.30
44863;DHT22;30597;49.628;10.850;2023-12-07T03:49:10;16.20;52.20
44863;DHT22;30597;49.628;10.850;2023-12-07T03:51:35;16.40;52.20
44863;DHT22;30597;49.628;10.850;2023-12-07T03:54:02;16.30;52.10
44863;DHT22;30597;49.628;10.850;2023-12-07T03:56:30;16.50;52.10
44863;DHT22;30597;49.628;10.850;2023-12-07T03:58:56;16.50;52.00
44863;DHT22;30597;49.628;10.850;2023-12-07T04:01:26;16.50;51.90
44863;DHT22;30597;49.628;10.850;2023-12-07T04:03:53;16.50;51.80
44863;DHT22;30597;49.628;10.850;2023-12-07T04:06:20;16.60;51.80
44863;DHT22;30597;49.628;10.850;2023-12-07T04:08:47;16.70;51.80
44863;DHT22;30597;49.628;10.850;2023-12-07T04:11:13;16.70;51.50
44863;DHT22;30597;49.628;10.850;2023-12-07T04:13:39;16.70;51.60
44863;DHT22;30597;49.628;10.850;2023-12-07T04:16:05;16.80;51.60
44863;DHT22;30597;49.628;10.850;2023-12-07T04:18:31;16.80;51.30
44863;DHT22;30597;49.628;10.850;2023-12-07T04:20:57;16.90;51.40
44863;DHT22;30597;49.628;10.850;2023-12-07T04:23:22;16.90;51.30
44863;DHT22;30597;49.628;10.850;2023-12-07T04:25:48;17.00;51.30
44863;DHT22;30597;49.628;10.850;2023-12-07T04:28:13;17.00;51.80
44863;DHT22;30597;49.628;10.850;2023-12-07T04:30:39;17.10;51.20
44863;DHT22;30597;49.628;10.850;2023-12-07T04:33:04;17.20;51.30
44863;DHT22;30597;49.628;10.850;2023-12-07T04:35:30;17.10;51.20
44863;DHT22;30597;49.628;10.850;2023-12-07T04:37:56;17.20;51.20
44863;DHT22;30597;49.628;10.850;2023-12-07T04:40:21;17.20;51.00
44863;DHT22;30597;49.628;10.850;2023-12-07T04:42:47;17.30;51.00
44863;DHT22;30597;49.628;10.850;2023-12-07T04:45:13;17.30;51.00
44863;DHT22;30597;49.628;10.850;2023-12-07T04:47:38;17.40;50.80
44863;DHT22;30597;49.628;10.850;2023-12-07T04:50:04;17.30;51.00
44863;DHT22;30597;49.628;10.850;2023-12-07T04:52:30;17.40;51.10
44863;DHT22;30597;49.628;10.850;2023-12-07T04:54:56;17.50;51.10
44863;DHT22;30597;49.628;10.850;2023-12-07T04:57:21;17.50;51.00
44863;DHT22;30597;49.628;10.850;2023-12-07T04:59:47;17.50;50.90
44863;DHT22;30597;49.628;10.850;2023-12-07T05:02:16;17.70;50.90
44863;DHT22;30597;49.628;10.850;2023-12-07T05:04:43;17.60;50.70
44863;DHT22;30597;49.628;10.850;2023-12-07T05:07:08;17.70;50.80
44863;DHT22;30597;49.628;10.850;2023-12-07T05:09:34;17.70;50.60
44863;DHT22;30597;49.628;10.850;2023-12-07T05:12:00;17.70;50.50
44863;DHT22;30597;49.628;10.850;2023-12-07T05:14:27;17.80;50.50
44863;DHT22;30597;49.628;10.850;2023-12-07T05:16:52;17.90;50.80
44863;DHT22;30597;49.628;10.850;2023-12-07T05:19:25;17.90;50.50
44863;DHT22;30597;49.628;10.850;2023-12-07T05:21:51;17.90;50.30
44863;DHT22;30597;49.628;10.850;2023-12-07T05:24:17;18.00;50.50
44863;DHT22;30597;49.628;10.850;2023-12-07T05:26:43;18.00;50.60
44863;DHT22;30597;49.628;10.850;2023-12-07T05:29:08;17.90;50.40
44863;DHT22;30597;49.628;10.850;2023-12-07T05:31:35;17.90;50.50
44863;DHT22;30597;49.628;10.850;2023-12-07T05:34:01;17.90;50.40
44863;DHT22;30597;49.628;10.850;2023-12-07T05:36:26;17.80;50.50
44863;DHT22;30597;49.628;10.850;2023-12-07T05:38:52;17.70;50.60
44863;DHT22;30597;49.628;10.850;2023-12-07T05:41:17;17.70;50.70
44863;DHT22;30597;49.628;10.850;2023-12-07T05:43:43;17.60;50.80
44863;DHT22;30597;49.628;10.850;2023-12-07T05:46:09;17.60;50.90
44863;DHT22;30597;49.628;10.850;2023-12-07T05:48:34;17.50;51.00
44863;DHT22;30597;49.628;10.850;2023-12-07T05:51:01;17.40;51.10
44863;DHT22;30597;49.628;10.850;2023-12-07T05:53:27;17.40;51.20
44863;DHT22;30597;49.628;10.850;2023-12-07T05:55:53;17.30;51.30
44863;DHT22;30597;49.628;10.850;2023-12-07T05:58:19;17.20;51.50
44863;DHT22;30597;49.628;10.850;2023-12-07T06:00:45;17.30;51.60
44863;DHT22;30597;49.628;10.850;2023-12-07T06:03:15;17.10;51.70
44863;DHT22;30597;49.628;10.850;2023-12-07T06:05:41;17.10;51.90
44863;DHT22;30597;49.628;10.850;2023-12-07T06:08:07;17.00;51.80
44863;DHT22;30597;49.628;10.850;2023-12-07T06:10:33;16.90;51.90
44863;DHT22;30597;49.628;10.850;2023-12-07T06:12:59;16.90;52.10
44863;DHT22;30597;49.628;10.850;2023-12-07T06:15:26;16.80;52.10
44863;DHT22;30597;49.628;10.850;2023-12-07T06:17:52;16.80;52.10
44863;DHT22;30597;49.628;10.850;2023-12-07T06:20:18;16.80;52.40
44863;DHT22;30597;49.628;10.850;2023-12-07T06:22:44;16.90;52.30
44863;DHT22;30597;49.628;10.850;2023-12-07T06:25:09;16.90;52.20
44863;DHT22;30597;49.628;10.850;2023-12-07T06:27:35;17.00;52.10
44863;DHT22;30597;49.628;10.850;2023-12-07T06:30:01;17.20;52.00
44863;DHT22;30597;49.628;10.850;2023-12-07T06:32:27;17.30;51.70
44863;DHT22;30597;49.628;10.850;2023-12-07T06:34:52;17.50;51.60
44863;DHT22;30597;49.628;10.850;2023-12-07T06:37:18;17.60;51.30
44863;DHT22;30597;49.628;10.850;2023-12-07T06:39:45;17.60;51.10
44863;DHT22;30597;49.628;10.850;2023-12-07T06:42:11;17.80;51.00
44863;DHT22;30597;49.628;10.850;2023-12-07T06:44:36;17.80;50.80
44863;DHT22;30597;49.628;10.850;2023-12-07T06:47:02;17.90;50.80
44863;DHT22;30597;49.628;10.850;2023-12-07T06:49:30;18.00;50.60
44863;DHT22;30597;49.628;10.850;2023-12-07T06:51:55;18.00;50.50
44863;DHT22;30597;49.628;10.850;2023-12-07T06:54:21;18.10;50.40
44863;DHT22;30597;49.628;10.850;2023-12-07T06:56:47;18.10;50.40
44863;DHT22;30597;49.628;10.850;2023-12-07T06:59:13;18.30;50.40
44863;DHT22;30597;49.628;10.850;2023-12-07T07:01:39;18.20;50.20
44863;DHT22;30597;49.628;10.850;2023-12-07T07:04:05;18.10;50.30
44863;DHT22;30597;49.628;10.850;2023-12-07T07:06:30;18.10;50.20
44863;DHT22;30597;49.628;10.850;2023-12-07T07:08:56;18.00;50.20
44863;DHT22;30597;49.628;10.850;2023-12-07T07:11:21;18.00;50.30
44863;DHT22;30597;49.628;10.850;2023-12-07T07:13:47;17.90;50.30
44863;DHT22;30597;49.628;10.850;2023-12-07T07:16:12;17.80;50.40
44863;DHT22;30597;49.628;10.850;2023-12-07T07:18:38;17.80;50.50
44863;DHT22;30597;49.628;10.850;2023-12-07T07:21:05;17.70;50.50
44863;DHT22;30597;49.628;10.850;2023-12-07T07:23:31;17.70;50.70
44863;DHT22;30597;49.628;10.850;2023-12-07T07:25:57;17.60;50.70
44863;DHT22;30597;49.628;10.850;2023-12-07T07:28:23;17.50;50.70
44863;DHT22;30597;49.628;10.850;2023-12-07T07:30:48;17.40;50.80
44863;DHT22;30597;49.628;10.850;2023-12-07T07:33:14;17.40;51.00
44863;DHT22;30597;49.628;10.850;2023-12-07T07:35:39;17.40;51.00
44863;DHT22;30597;49.628;10.850;2023-12-07T07:38:05;17.30;51.00
44863;DHT22;30597;49.628;10.850;2023-12-07T07:40:31;17.20;51.10
44863;DHT22;30597;49.628;10.850;2023-12-07T07:42:56;17.20;51.10
44863;DHT22;30597;49.628;10.850;2023-12-07T07:45:22;17.20;51.20
44863;DHT22;30597;49.628;10.850;2023-12-07T07:47:47;17.30;51.30
44863;DHT22;30597;49.628;10.850;2023-12-07T07:50:13;17.10;51.20
44863;DHT22;30597;49.628;10.850;2023-12-07T07:52:38;17.10;51.40
44863;DHT22;30597;49.628;10.850;2023-12-07T07:55:06;17.00;51.30
44863;DHT22;30597;49.628;10.850;2023-12-07T07:57:32;17.00;51.30
44863;DHT22;30597;49.628;10.850;2023-12-07T07:59:58;17.00;51.30
44863;DHT22;30597;49.628;10.850;2023-12-07T08:02:23;17.00;51.40
44863;DHT22;30597;49.628;10.850;2023-12-07T08:04:49;17.10;51.40
44863;DHT22;30597;49.628;10.850;2023-12-07T08:07:16;17.30;51.30
44863;DHT22;30597;49.628;10.850;2023-12-07T08:09:42;17.40;51.20
44863;DHT22;30597;49.628;10.850;2023-12-07T08:12:08;17.50;51.00
44863;DHT22;30597;49.628;10.850;2023-12-07T08:14:35;17.70;50.80
44863;DHT22;30597;49.628;10.850;2023-12-07T08:17:02;17.80;50.60
44863;DHT22;30597;49.628;10.850;2023-12-07T08:19:28;17.90;50.50
44863;DHT22;30597;49.628;10.850;2023-12-07T08:21:53;18.00;50.20
44863;DHT22;30597;49.628;10.850;2023-12-07T08:24:19;18.10;50.10
44863;DHT22;30597;49.628;10.850;2023-12-07T08:26:44;18.10;50.00
44863;DHT22;30597;49.628;10.850;2023-12-07T08:29:10;18.20;50.00
44863;DHT22;30597;49.628;10.850;2023-12-07T08:31:36;18.20;49.80
44863;DHT22;30597;49.628;10.850;2023-12-07T08:34:01;18.30;49.80
44863;DHT22;30597;49.628;10.850;2023-12-07T08:36:27;18.30;49.80
44863;DHT22;30597;49.628;10.850;2023-12-07T08:38:53;18.30;49.70
44863;DHT22;30597;49.628;10.850;2023-12-07T08:41:18;18.30;49.90
44863;DHT22;30597;49.628;10.850;2023-12-07T08:43:44;18.20;49.80
44863;DHT22;30597;49.628;10.850;2023-12-07T08:46:09;18.20;49.90
44863;DHT22;30597;49.628;10.850;2023-12-07T08:48:38;18.10;50.00
44863;DHT22;30597;49.628;10.850;2023-12-07T08:51:04;18.10;50.20
44863;DHT22;30597;49.628;10.850;2023-12-07T08:53:31;18.00;50.20
44863;DHT22;30597;49.628;10.850;2023-12-07T08:55:56;17.90;50.40
44863;DHT22;30597;49.628;10.850;2023-12-07T08:58:22;17.80;50.40
44863;DHT22;30597;49.628;10.850;2023-12-07T09:00:48;17.80;50.50
44863;DHT22;30597;49.628;10.850;2023-12-07T09:03:14;17.70;50.60
44863;DHT22;30597;49.628;10.850;2023-12-07T09:05:39;17.60;50.50
44863;DHT22;30597;49.628;10.850;2023-12-07T09:08:05;17.60;50.80
44863;DHT22;30597;49.628;10.850;2023-12-07T09:10:32;17.60;51.00
44863;DHT22;30597;49.628;10.850;2023-12-07T09:12:57;17.50;51.00
44863;DHT22;30597;49.628;10.850;2023-12-07T09:15:23;17.50;51.10
44863;DHT22;30597;49.628;10.850;2023-12-07T09:17:48;17.40;51.00
44863;DHT22;30597;49.628;10.850;2023-12-07T09:20:14;17.40;51.10
44863;DHT22;30597;49.628;10.850;2023-12-07T09:22:46;17.30;51.30
44863;DHT22;30597;49.628;10.850;2023-12-07T09:25:13;17.30;51.30
44863;DHT22;30597;49.628;10.850;2023-12-07T09:27:40;17.30;51.40
44863;DHT22;30597;49.628;10.850;2023-12-07T09:30:07;17.30;51.40
44863;DHT22;30597;49.628;10.850;2023-12-07T09:32:36;17.30;51.50
44863;DHT22;30597;49.628;10.850;2023-12-07T09:35:07;17.20;51.50
44863;DHT22;30597;49.628;10.850;2023-12-07T09:37:33;17.20;51.50
44863;DHT22;30597;49.628;10.850;2023-12-07T09:40:00;17.20;51.40
44863;DHT22;30597;49.628;10.850;2023-12-07T09:42:26;17.20;51.50
44863;DHT22;30597;49.628;10.850;2023-12-07T09:44:51;17.20;51.60
44863;DHT22;30597;49.628;10.850;2023-12-07T09:47:17;17.30;51.50
44863;DHT22;30597;49.628;10.850;2023-12-07T09:49:44;17.50;51.70
44863;DHT22;30597;49.628;10.850;2023-12-07T09:52:10;17.50;51.30
44863;DHT22;30597;49.628;10.850;2023-12-07T09:54:41;17.70;51.20
44863;DHT22;30597;49.628;10.850;2023-12-07T09:57:07;17.90;51.00
44863;DHT22;30597;49.628;10.850;2023-12-07T09:59:35;18.00;50.80
44863;DHT22;30597;49.628;10.850;2023-12-07T10:02:01;18.10;50.60
44863;DHT22;30597;49.628;10.850;2023-12-07T10:04:27;18.10;50.50
44863;DHT22;30597;49.628;10.850;2023-12-07T10:06:52;18.20;50.40
44863;DHT22;30597;49.628;10.850;2023-12-07T10:09:19;18.20;50.30
44863;DHT22;30597;49.628;10.850;2023-12-07T10:11:47;18.30;50.30
44863;DHT22;30597;49.628;10.850;2023-12-07T10:14:12;18.30;50.20
44863;DHT22;30597;49.628;10.850;2023-12-07T10:16:38;18.30;50.00
44863;DHT22;30597;49.628;10.850;2023-12-07T10:19:14;18.40;50.10
44863;DHT22;30597;49.628;10.850;2023-12-07T10:21:43;18.40;50.20
44863;DHT22;30597;49.628;10.850;2023-12-07T10:24:09;18.40;50.20
44863;DHT22;30597;49.628;10.850;2023-12-07T10:26:35;18.30;50.20
44863;DHT22;30597;49.628;10.850;2023-12-07T10:29:04;18.30;50.20
44863;DHT22;30597;49.628;10.850;2023-12-07T10:31:31;18.20;50.30
44863;DHT22;30597;49.628;10.850;2023-12-07T10:33:56;18.20;50.40
44863;DHT22;30597;49.628;10.850;2023-12-07T10:36:22;18.10;50.30
44863;DHT22;30597;49.628;10.850;2023-12-07T10:38:48;18.10;50.50
44863;DHT22;30597;49.628;10.850;2023-12-07T10:41:16;18.10;50.60
44863;DHT22;30597;49.628;10.850;2023-12-07T10:43:43;17.90;50.70
44863;DHT22;30597;49.628;10.850;2023-12-07T10:46:14;17.90;50.80
44863;DHT22;30597;49.628;10.850;2023-12-07T10:48:44;17.90;50.90
44863;DHT22;30597;49.628;10.850;2023-12-07T10:51:17;17.80;51.00
44863;DHT22;30597;49.628;10.850;2023-12-07T10:53:45;17.70;51.00
44863;DHT22;30597;49.628;10.850;2023-12-07T10:56:14;17.70;51.00
44863;DHT22;30597;49.628;10.850;2023-12-07T10:58:41;17.60;51.10
44863;DHT22;30597;49.628;10.850;2023-12-07T11:01:07;17.60;51.10
44863;DHT22;30597;49.628;10.850;2023-12-07T11:03:35;17.50;51.10
44863;DHT22;30597;49.628;10.850;2023-12-07T11:06:02;17.50;51.10
44863;DHT22;30597;49.628;10.850;2023-12-07T11:08:47;17.50;51.30
44863;DHT22;30597;49.628;10.850;2023-12-07T11:11:59;17.40;51.20
44863;DHT22;30597;49.628;10.850;2023-12-07T11:14:26;17.40;51.30
44863;DHT22;30597;49.628;10.850;2023-12-07T11:16:52;17.30;51.20
44863;DHT22;30597;49.628;10.850;2023-12-07T11:22:08;17.30;51.40
44863;DHT22;30597;49.628;10.850;2023-12-07T11:24:34;17.30;51.40
44863;DHT22;30597;49.628;10.850;2023-12-07T11:27:02;17.30;51.40
44863;DHT22;30597;49.628;10.850;2023-12-07T11:29:31;17.30;51.50
44863;DHT22;30597;49.628;10.850;2023-12-07T11:32:03;17.40;51.40
44863;DHT22;30597;49.628;10.850;2023-12-07T11:34:40;17.60;51.40
44863;DHT22;30597;49.628;10.850;2023-12-07T11:37:06;17.70;51.10
44863;DHT22;30597;49.628;10.850;2023-12-07T11:39:36;17.80;51.00
44863;DHT22;30597;49.628;10.850;2023-12-07T11:42:10;17.90;50.70
44863;DHT22;30597;49.628;10.850;2023-12-07T11:44:40;18.10;50.60
44863;DHT22;30597;49.628;10.850;2023-12-07T11:47:07;18.20;50.40
44863;DHT22;30597;49.628;10.850;2023-12-07T11:49:34;18.20;50.30
44863;DHT22;30597;49.628;10.850;2023-12-07T11:52:00;18.30;50.10
44863;DHT22;30597;49.628;10.850;2023-12-07T11:54:26;18.40;50.00
44863;DHT22;30597;49.628;10.850;2023-12-07T11:56:56;18.40;49.90
44863;DHT22;30597;49.628;10.850;2023-12-07T11:59:22;18.50;49.70
44863;DHT22;30597;49.628;10.850;2023-12-07T12:01:50;18.50;49.80
44863;DHT22;30597;49.628;10.850;2023-12-07T12:04:16;18.50;49.70
44863;DHT22;30597;49.628;10.850;2023-12-07T12:06:45;18.50;49.60
44863;DHT22;30597;49.628;10.850;2023-12-07T12:09:14;18.50;49.60
44863;DHT22;30597;49.628;10.850;2023-12-07T12:11:49;18.40;49.70
44863;DHT22;30597;49.628;10.850;2023-12-07T12:14:16;18.40;49.70
44863;DHT22;30597;49.628;10.850;2023-12-07T12:16:46;18.30;49.80
44863;DHT22;30597;49.628;10.850;2023-12-07T12:19:12;18.30;49.90
44863;DHT22;30597;49.628;10.850;2023-12-07T12:21:40;18.20;49.90
44863;DHT22;30597;49.628;10.850;2023-12-07T12:24:06;18.20;50.00
44863;DHT22;30597;49.628;10.850;2023-12-07T12:26:36;18.10;50.20
44863;DHT22;30597;49.628;10.850;2023-12-07T12:29:05;18.00;50.30
44863;DHT22;30597;49.628;10.850;2023-12-07T12:31:35;17.90;50.50
44863;DHT22;30597;49.628;10.850;2023-12-07T12:34:01;17.90;50.70
44863;DHT22;30597;49.628;10.850;2023-12-07T12:36:27;17.80;50.60
44863;DHT22;30597;49.628;10.850;2023-12-07T12:38:54;17.70;50.70
44863;DHT22;30597;49.628;10.850;2023-12-07T12:41:20;17.70;50.70
44863;DHT22;30597;49.628;10.850;2023-12-07T12:43:48;17.60;51.00
44863;DHT22;30597;49.628;10.850;2023-12-07T12:46:15;17.60;51.10
44863;DHT22;30597;49.628;10.850;2023-12-07T12:48:57;17.60;51.20
44863;DHT22;30597;49.628;10.850;2023-12-07T12:51:31;17.50;51.30
44863;DHT22;30597;49.628;10.850;2023-12-07T12:53:59;17.50;51.20
44863;DHT22;30597;49.628;10.850;2023-12-07T12:56:26;17.40;51.30
44863;DHT22;30597;49.628;10.850;2023-12-07T12:58:52;17.40;51.40
44863;DHT22;30597;49.628;10.850;2023-12-07T13:01:19;17.40;51.40
44863;DHT22;30597;49.628;10.850;2023-12-07T13:03:46;17.40;51.40
44863;DHT22;30597;49.628;10.850;2023-12-07T13:06:15;17.50;51.50
44863;DHT22;30597;49.628;10.850;2023-12-07T13:08:43;17.30;51.40
44863;DHT22;30597;49.628;10.850;2023-12-07T13:11:09;17.30;51.50
44863;DHT22;30597;49.628;10.850;2023-12-07T13:13:36;17.20;51.30
44863;DHT22;30597;49.628;10.850;2023-12-07T13:16:02;17.30;51.60
44863;DHT22;30597;49.628;10.850;2023-12-07T13:18:27;17.30;51.60
44863;DHT22;30597;49.628;10.850;2023-12-07T13:20:53;17.30;51.50
44863;DHT22;30597;49.628;10.850;2023-12-07T13:23:19;17.60;51.60
44863;DHT22;30597;49.628;10.850;2023-12-07T13:25:44;17.60;51.30
44863;DHT22;30597;49.628;10.850;2023-12-07T13:28:10;17.80;51.10
44863;DHT22;30597;49.628;10.850;2023-12-07T13:30:36;17.90;51.00
44863;DHT22;30597;49.628;10.850;2023-12-07T13:33:02;18.00;50.80
44863;DHT22;30597;49.628;10.850;2023-12-07T13:35:29;18.20;50.80
44863;DHT22;30597;49.628;10.850;2023-12-07T13:37:55;18.20;50.50
44863;DHT22;30597;49.628;10.850;2023-12-07T13:40:20;18.30;50.40
44863;DHT22;30597;49.628;10.850;2023-12-07T13:42:47;18.40;50.20
44863;DHT22;30597;49.628;10.850;2023-12-07T13:45:12;18.50;50.20
44863;DHT22;30597;49.628;10.850;2023-12-07T13:47:38;18.50;50.10
44863;DHT22;30597;49.628;10.850;2023-12-07T13:50:05;18.50;50.10
44863;DHT22;30597;49.628;10.850;2023-12-07T13:52:31;18.50;50.10
44863;DHT22;30597;49.628;10.850;2023-12-07T13:54:57;18.50;50.10
44863;DHT22;30597;49.628;10.850;2023-12-07T13:57:23;18.50;50.10
44863;DHT22;30597;49.628;10.850;2023-12-07T13:59:52;18.40;50.20
44863;DHT22;30597;49.628;10.850;2023-12-07T14:02:18;18.40;50.20
44863;DHT22;30597;49.628;10.850;2023-12-07T14:04:45;18.40;50.40
44863;DHT22;30597;49.628;10.850;2023-12-07T14:07:14;18.40;50.60
44863;DHT22;30597;49.628;10.850;2023-12-07T14:09:42;18.20;50.50
44863;DHT22;30597;49.628;10.850;2023-12-07T14:12:08;18.20;50.70
44863;DHT22;30597;49.628;10.850;2023-12-07T14:14:34;18.10;50.70
44863;DHT22;30597;49.628;10.850;2023-12-07T14:17:00;18.00;50.70
44863;DHT22;30597;49.628;10.850;2023-12-07T14:19:26;18.00;50.90
44863;DHT22;30597;49.628;10.850;2023-12-07T14:21:51;17.90;50.90
44863;DHT22;30597;49.628;10.850;2023-12-07T14:24:17;17.90;51.00
44863;DHT22;30597;49.628;10.850;2023-12-07T14:26:43;17.80;51.10
44863;DHT22;30597;49.628;10.850;2023-12-07T14:29:09;17.70;51.20
44863;DHT22;30597;49.628;10.850;2023-12-07T14:31:40;17.60;51.30
44863;DHT22;30597;49.628;10.850;2023-12-07T14:34:05;17.60;51.50
44863;DHT22;30597;49.628;10.850;2023-12-07T14:36:31;17.60;51.50
44863;DHT22;30597;49.628;10.850;2023-12-07T14:38:57;17.50;51.50
44863;DHT22;30597;49.628;10.850;2023-12-07T14:41:25;17.50;51.50
44863;DHT22;30597;49.628;10.850;2023-12-07T14:43:51;17.50;51.80
44863;DHT22;30597;49.628;10.850;2023-12-07T14:46:16;17.40;51.50
44863;DHT22;30597;49.628;10.850;2023-12-07T14:48:43;17.40;51.50
44863;DHT22;30597;49.628;10.850;2023-12-07T14:51:09;17.40;51.60
44863;DHT22;30597;49.628;10.850;2023-12-07T14:53:34;17.40;51.70
44863;DHT22;30597;49.628;10.850;2023-12-07T14:56:00;17.30;51.60
44863;DHT22;30597;49.628;10.850;2023-12-07T14:58:25;17.30;51.70
44863;DHT22;30597;49.628;10.850;2023-12-07T15:00:52;17.30;51.70
44863;DHT22;30597;49.628;10.850;2023-12-07T15:03:19;17.20;51.70
44863;DHT22;30597;49.628;10.850;2023-12-07T15:05:44;17.40;51.80
44863;DHT22;30597;49.628;10.850;2023-12-07T15:08:10;17.20;51.60
44863;DHT22;30597;49.628;10.850;2023-12-07T15:10:37;17.20;51.70
44863;DHT22;30597;49.628;10.850;2023-12-07T15:13:02;17.30;51.70
44863;DHT22;30597;49.628;10.850;2023-12-07T15:15:29;17.40;51.60